Current Conditions
Partly Cloudy
Conditions



Pressure
1006.92 (mb) - 29.73 (inHG)
Visibility

10.0 (km) - 6.2 (miles)
   Temperature
9  °C
Temperature
7  °C
Dewpoint
87  %
 Humidity
   Wind Speed
8  km/h
4  kts
5  mph
2.2  m/s
   Wind Direction
N
45°
E
90°
135°
S
180°
225°
W
270°
315°
 360°

Due North
   Airport Data
EHAM
Amsterdam Airport Schiphol
Metar :EHAM 142255Z 36004KT 330V030 9999 FEW014 BKN018 09/07 Q1007 NOSIG
Sat 15th May 00:55 am
   Raw Metar Info
Raw METAR is the most common format in the world for the transmission of observational weather data. It is highly standardized through the International Civil Aviation Organization (ICAO), which allows it to be understood throughout most of the world.
   API Info
Data Provided by
https://www.checkwx.com/weather/EHAM

Aviation Weather providing METAR, TAF, AIRMET, SIGMET and OUTLOOK Weather Reports
   © Info
CSS/SVG/PHP scripts were developed by weather34.com for use in the weather34 template © 2015-2021

Guide Info provided by Metar-Wikipedia